sensor_id;sensor_type;location;lat;lon;timestamp;temperature;humidity
22167;DHT22;11249;52.468;13.776;2023-01-10T00:00:27;5.70;99.90
22167;DHT22;11249;52.468;13.776;2023-01-10T00:03:10;5.80;99.90
22167;DHT22;11249;52.468;13.776;2023-01-10T00:05:38;5.80;99.90
22167;DHT22;11249;52.468;13.776;2023-01-10T00:08:06;5.80;99.90
22167;DHT22;11249;52.468;13.776;2023-01-10T00:10:40;5.80;99.90
22167;DHT22;11249;52.468;13.776;2023-01-10T00:13:16;5.80;99.90
22167;DHT22;11249;52.468;13.776;2023-01-10T00:15:55;5.80;99.90
22167;DHT22;11249;52.468;13.776;2023-01-10T00:18:22;5.90;99.90
22167;DHT22;11249;52.468;13.776;2023-01-10T00:20:49;5.90;99.90
22167;DHT22;11249;52.468;13.776;2023-01-10T00:23:22;6.00;99.90
22167;DHT22;11249;52.468;13.776;2023-01-10T00:25:55;6.00;99.90
22167;DHT22;11249;52.468;13.776;2023-01-10T00:28:28;6.00;99.90
22167;DHT22;11249;52.468;13.776;2023-01-10T00:31:00;6.10;99.90
22167;DHT22;11249;52.468;13.776;2023-01-10T00:33:34;6.10;99.90
22167;DHT22;11249;52.468;13.776;2023-01-10T00:36:09;6.10;99.90
22167;DHT22;11249;52.468;13.776;2023-01-10T00:38:42;6.10;99.90
22167;DHT22;11249;52.468;13.776;2023-01-10T00:41:09;6.10;99.90
22167;DHT22;11249;52.468;13.776;2023-01-10T00:44:02;6.10;99.90
22167;DHT22;11249;52.468;13.776;2023-01-10T00:46:29;6.10;99.90
22167;DHT22;11249;52.468;13.776;2023-01-10T00:49:02;6.10;99.90
22167;DHT22;11249;52.468;13.776;2023-01-10T00:51:32;6.20;99.90
22167;DHT22;11249;52.468;13.776;2023-01-10T00:53:59;6.20;99.90
22167;DHT22;11249;52.468;13.776;2023-01-10T00:56:33;6.20;99.90
22167;DHT22;11249;52.468;13.776;2023-01-10T00:59:00;6.20;99.90
22167;DHT22;11249;52.468;13.776;2023-01-10T01:01:33;6.30;99.90
22167;DHT22;11249;52.468;13.776;2023-01-10T01:04:00;6.30;99.90
22167;DHT22;11249;52.468;13.776;2023-01-10T01:06:33;6.30;99.90
22167;DHT22;11249;52.468;13.776;2023-01-10T01:09:06;6.30;99.90
22167;DHT22;11249;52.468;13.776;2023-01-10T01:11:33;6.30;99.90
22167;DHT22;11249;52.468;13.776;2023-01-10T01:13:59;6.30;99.90
22167;DHT22;11249;52.468;13.776;2023-01-10T01:16:33;6.30;99.90
22167;DHT22;11249;52.468;13.776;2023-01-10T01:19:00;6.30;99.90
22167;DHT22;11249;52.468;13.776;2023-01-10T01:21:26;6.30;99.90
22167;DHT22;11249;52.468;13.776;2023-01-10T01:24:00;6.30;99.90
22167;DHT22;11249;52.468;13.776;2023-01-10T01:26:26;6.30;99.90
22167;DHT22;11249;52.468;13.776;2023-01-10T01:29:00;6.40;99.90
22167;DHT22;11249;52.468;13.776;2023-01-10T01:31:40;6.40;99.90
22167;DHT22;11249;52.468;13.776;2023-01-10T01:34:13;6.40;99.90
22167;DHT22;11249;52.468;13.776;2023-01-10T01:36:46;6.40;99.90
22167;DHT22;11249;52.468;13.776;2023-01-10T01:39:19;6.40;99.90
22167;DHT22;11249;52.468;13.776;2023-01-10T01:41:45;6.30;99.90
22167;DHT22;11249;52.468;13.776;2023-01-10T01:44:35;6.30;99.90
22167;DHT22;11249;52.468;13.776;2023-01-10T01:47:13;6.30;99.90
22167;DHT22;11249;52.468;13.776;2023-01-10T01:49:50;6.30;99.90
22167;DHT22;11249;52.468;13.776;2023-01-10T01:52:27;6.30;99.90
22167;DHT22;11249;52.468;13.776;2023-01-10T01:55:02;6.30;99.90
22167;DHT22;11249;52.468;13.776;2023-01-10T01:57:31;6.30;99.90
22167;DHT22;11249;52.468;13.776;2023-01-10T02:00:04;6.30;99.90
22167;DHT22;11249;52.468;13.776;2023-01-10T02:02:35;6.30;99.90
22167;DHT22;11249;52.468;13.776;2023-01-10T02:05:26;6.40;99.90
22167;DHT22;11249;52.468;13.776;2023-01-10T02:07:55;6.40;99.90
22167;DHT22;11249;52.468;13.776;2023-01-10T02:10:46;6.30;99.90
22167;DHT22;11249;52.468;13.776;2023-01-10T02:13:16;6.40;99.90
22167;DHT22;11249;52.468;13.776;2023-01-10T02:15:50;6.40;99.90
22167;DHT22;11249;52.468;13.776;2023-01-10T02:18:17;6.40;99.90
22167;DHT22;11249;52.468;13.776;2023-01-10T02:29:34;6.50;99.90
22167;DHT22;11249;52.468;13.776;2023-01-10T02:32:56;6.50;99.90
22167;DHT22;11249;52.468;13.776;2023-01-10T02:36:01;6.50;99.90
22167;DHT22;11249;52.468;13.776;2023-01-10T02:41:55;6.60;99.90
22167;DHT22;11249;52.468;13.776;2023-01-10T02:44:42;6.50;99.90
22167;DHT22;11249;52.468;13.776;2023-01-10T02:47:12;6.60;99.90
22167;DHT22;11249;52.468;13.776;2023-01-10T02:49:48;6.50;99.90
22167;DHT22;11249;52.468;13.776;2023-01-10T02:52:22;6.50;99.90
22167;DHT22;11249;52.468;13.776;2023-01-10T02:55:00;6.50;99.90
22167;DHT22;11249;52.468;13.776;2023-01-10T02:57:48;6.50;99.90
22167;DHT22;11249;52.468;13.776;2023-01-10T03:00:40;6.40;99.90
22167;DHT22;11249;52.468;13.776;2023-01-10T03:03:23;6.40;99.90
22167;DHT22;11249;52.468;13.776;2023-01-10T03:06:03;6.40;99.90
22167;DHT22;11249;52.468;13.776;2023-01-10T03:08:54;6.40;99.90
22167;DHT22;11249;52.468;13.776;2023-01-10T03:11:30;6.30;99.90
22167;DHT22;11249;52.468;13.776;2023-01-10T03:14:23;6.30;99.90
22167;DHT22;11249;52.468;13.776;2023-01-10T03:17:01;6.20;99.90
22167;DHT22;11249;52.468;13.776;2023-01-10T03:19:34;6.20;99.90
22167;DHT22;11249;52.468;13.776;2023-01-10T03:22:09;6.20;99.90
22167;DHT22;11249;52.468;13.776;2023-01-10T03:24:47;6.20;99.90
22167;DHT22;11249;52.468;13.776;2023-01-10T03:27:38;6.20;99.90
22167;DHT22;11249;52.468;13.776;2023-01-10T03:32:59;6.20;99.90
22167;DHT22;11249;52.468;13.776;2023-01-10T03:36:06;6.10;99.90
22167;DHT22;11249;52.468;13.776;2023-01-10T03:38:49;6.10;99.90
22167;DHT22;11249;52.468;13.776;2023-01-10T03:42:03;6.20;99.90
22167;DHT22;11249;52.468;13.776;2023-01-10T03:44:43;6.20;99.90
22167;DHT22;11249;52.468;13.776;2023-01-10T03:47:45;6.20;99.90
22167;DHT22;11249;52.468;13.776;2023-01-10T03:52:50;6.20;99.90
22167;DHT22;11249;52.468;13.776;2023-01-10T03:55:19;6.20;99.90
22167;DHT22;11249;52.468;13.776;2023-01-10T03:57:47;6.20;99.90
22167;DHT22;11249;52.468;13.776;2023-01-10T04:00:21;6.20;99.90
22167;DHT22;11249;52.468;13.776;2023-01-10T04:02:49;6.30;99.90
22167;DHT22;11249;52.468;13.776;2023-01-10T04:05:23;6.20;99.90
22167;DHT22;11249;52.468;13.776;2023-01-10T04:07:56;6.20;99.90
22167;DHT22;11249;52.468;13.776;2023-01-10T04:10:29;6.20;99.90
22167;DHT22;11249;52.468;13.776;2023-01-10T04:13:02;6.20;99.90
22167;DHT22;11249;52.468;13.776;2023-01-10T04:15:35;6.30;99.90
22167;DHT22;11249;52.468;13.776;2023-01-10T04:18:08;6.20;99.90
22167;DHT22;11249;52.468;13.776;2023-01-10T04:20:34;6.30;99.90
22167;DHT22;11249;52.468;13.776;2023-01-10T04:23:08;6.30;99.90
22167;DHT22;11249;52.468;13.776;2023-01-10T04:25:34;6.30;99.90
22167;DHT22;11249;52.468;13.776;2023-01-10T04:28:08;6.30;99.90
22167;DHT22;11249;52.468;13.776;2023-01-10T04:30:41;6.40;99.90
22167;DHT22;11249;52.468;13.776;2023-01-10T04:33:21;6.40;99.90
22167;DHT22;11249;52.468;13.776;2023-01-10T04:35:48;6.40;99.90
22167;DHT22;11249;52.468;13.776;2023-01-10T04:38:16;6.40;99.90
22167;DHT22;11249;52.468;13.776;2023-01-10T04:40:55;6.40;99.90
22167;DHT22;11249;52.468;13.776;2023-01-10T04:43:29;6.40;99.90
22167;DHT22;11249;52.468;13.776;2023-01-10T04:46:02;6.40;99.90
22167;DHT22;11249;52.468;13.776;2023-01-10T04:48:35;6.40;99.90
22167;DHT22;11249;52.468;13.776;2023-01-10T04:51:09;6.40;99.90
22167;DHT22;11249;52.468;13.776;2023-01-10T04:53:42;6.40;99.90
22167;DHT22;11249;52.468;13.776;2023-01-10T04:56:14;6.40;99.90
22167;DHT22;11249;52.468;13.776;2023-01-10T04:58:48;6.40;99.90
22167;DHT22;11249;52.468;13.776;2023-01-10T05:01:17;6.40;99.90
22167;DHT22;11249;52.468;13.776;2023-01-10T05:03:52;6.30;99.90
22167;DHT22;11249;52.468;13.776;2023-01-10T05:06:25;6.40;99.90
22167;DHT22;11249;52.468;13.776;2023-01-10T05:08:58;6.40;99.90
22167;DHT22;11249;52.468;13.776;2023-01-10T05:11:31;6.40;99.90
22167;DHT22;11249;52.468;13.776;2023-01-10T05:14:04;6.40;99.90
22167;DHT22;11249;52.468;13.776;2023-01-10T05:16:31;6.40;99.90
22167;DHT22;11249;52.468;13.776;2023-01-10T05:19:11;6.40;99.90
22167;DHT22;11249;52.468;13.776;2023-01-10T05:21:37;6.40;99.90
22167;DHT22;11249;52.468;13.776;2023-01-10T05:24:11;6.50;99.90
22167;DHT22;11249;52.468;13.776;2023-01-10T05:26:51;6.50;99.90
22167;DHT22;11249;52.468;13.776;2023-01-10T05:29:24;6.40;99.90
22167;DHT22;11249;52.468;13.776;2023-01-10T05:31:51;6.40;99.90
22167;DHT22;11249;52.468;13.776;2023-01-10T05:34:31;6.40;99.90
22167;DHT22;11249;52.468;13.776;2023-01-10T05:36:57;6.40;99.90
22167;DHT22;11249;52.468;13.776;2023-01-10T05:39:31;6.40;99.90
22167;DHT22;11249;52.468;13.776;2023-01-10T05:41:58;6.40;99.90
22167;DHT22;11249;52.468;13.776;2023-01-10T05:44:31;6.40;99.90
22167;DHT22;11249;52.468;13.776;2023-01-10T05:47:04;6.50;99.90
22167;DHT22;11249;52.468;13.776;2023-01-10T05:49:30;6.50;99.90
22167;DHT22;11249;52.468;13.776;2023-01-10T05:52:04;6.50;99.90
22167;DHT22;11249;52.468;13.776;2023-01-10T05:54:37;6.40;99.90
22167;DHT22;11249;52.468;13.776;2023-01-10T05:57:10;6.50;99.90
22167;DHT22;11249;52.468;13.776;2023-01-10T05:59:37;6.50;99.90
22167;DHT22;11249;52.468;13.776;2023-01-10T06:02:10;6.50;99.90
22167;DHT22;11249;52.468;13.776;2023-01-10T06:04:37;6.50;99.90
22167;DHT22;11249;52.468;13.776;2023-01-10T06:07:10;6.50;99.90
22167;DHT22;11249;52.468;13.776;2023-01-10T06:09:43;6.50;99.90
22167;DHT22;11249;52.468;13.776;2023-01-10T06:12:17;6.50;99.90
22167;DHT22;11249;52.468;13.776;2023-01-10T06:14:46;6.50;99.90
22167;DHT22;11249;52.468;13.776;2023-01-10T06:17:13;6.50;99.90
22167;DHT22;11249;52.468;13.776;2023-01-10T06:19:46;6.50;99.90
22167;DHT22;11249;52.468;13.776;2023-01-10T06:22:13;6.60;99.90
22167;DHT22;11249;52.468;13.776;2023-01-10T06:24:46;6.50;99.90
22167;DHT22;11249;52.468;13.776;2023-01-10T06:27:12;6.50;99.90
22167;DHT22;11249;52.468;13.776;2023-01-10T06:29:39;6.50;99.90
22167;DHT22;11249;52.468;13.776;2023-01-10T06:32:12;6.50;99.90
22167;DHT22;11249;52.468;13.776;2023-01-10T06:34:45;6.60;99.90
22167;DHT22;11249;52.468;13.776;2023-01-10T06:37:12;6.60;99.90
22167;DHT22;11249;52.468;13.776;2023-01-10T06:39:47;6.60;99.90
22167;DHT22;11249;52.468;13.776;2023-01-10T06:42:14;6.60;99.90
22167;DHT22;11249;52.468;13.776;2023-01-10T06:45:09;6.50;99.90
22167;DHT22;11249;52.468;13.776;2023-01-10T07:32:11;6.60;99.90
22167;DHT22;11249;52.468;13.776;2023-01-10T07:34:51;6.60;99.90
22167;DHT22;11249;52.468;13.776;2023-01-10T07:37:24;6.60;99.90
22167;DHT22;11249;52.468;13.776;2023-01-10T07:39:57;6.60;99.90
22167;DHT22;11249;52.468;13.776;2023-01-10T07:42:23;6.60;99.90
22167;DHT22;11249;52.468;13.776;2023-01-10T07:44:57;6.60;99.90
22167;DHT22;11249;52.468;13.776;2023-01-10T07:47:24;6.60;99.90
22167;DHT22;11249;52.468;13.776;2023-01-10T07:49:50;6.60;99.90
22167;DHT22;11249;52.468;13.776;2023-01-10T07:52:24;6.60;99.90
22167;DHT22;11249;52.468;13.776;2023-01-10T07:54:50;6.60;99.90
22167;DHT22;11249;52.468;13.776;2023-01-10T07:57:25;6.60;99.90
22167;DHT22;11249;52.468;13.776;2023-01-10T07:59:52;6.60;99.90
22167;DHT22;11249;52.468;13.776;2023-01-10T08:02:25;6.60;99.90
22167;DHT22;11249;52.468;13.776;2023-01-10T08:04:52;6.60;99.90
22167;DHT22;11249;52.468;13.776;2023-01-10T08:07:27;6.60;99.90
22167;DHT22;11249;52.468;13.776;2023-01-10T08:10:00;6.60;99.90
22167;DHT22;11249;52.468;13.776;2023-01-10T08:12:27;6.60;99.90
22167;DHT22;11249;52.468;13.776;2023-01-10T08:15:07;6.60;99.90
22167;DHT22;11249;52.468;13.776;2023-01-10T08:17:35;6.70;99.90
22167;DHT22;11249;52.468;13.776;2023-01-10T08:20:08;6.70;99.90
22167;DHT22;11249;52.468;13.776;2023-01-10T08:22:35;6.70;99.90
22167;DHT22;11249;52.468;13.776;2023-01-10T08:25:02;6.70;99.90
22167;DHT22;11249;52.468;13.776;2023-01-10T08:27:35;6.80;99.90
22167;DHT22;11249;52.468;13.776;2023-01-10T08:30:04;6.70;99.90
22167;DHT22;11249;52.468;13.776;2023-01-10T08:32:37;6.80;99.90
22167;DHT22;11249;52.468;13.776;2023-01-10T08:35:12;6.80;99.90
22167;DHT22;11249;52.468;13.776;2023-01-10T08:37:39;6.80;99.90
22167;DHT22;11249;52.468;13.776;2023-01-10T08:40:06;6.80;99.90
22167;DHT22;11249;52.468;13.776;2023-01-10T08:42:39;6.80;99.90
22167;DHT22;11249;52.468;13.776;2023-01-10T08:45:12;6.90;99.90
22167;DHT22;11249;52.468;13.776;2023-01-10T08:47:38;6.90;99.90
22167;DHT22;11249;52.468;13.776;2023-01-10T08:50:05;6.90;99.90
22167;DHT22;11249;52.468;13.776;2023-01-10T08:52:39;6.90;99.90
22167;DHT22;11249;52.468;13.776;2023-01-10T08:55:12;6.90;99.90
22167;DHT22;11249;52.468;13.776;2023-01-10T08:57:39;6.90;99.90
22167;DHT22;11249;52.468;13.776;2023-01-10T09:00:06;7.00;99.90
22167;DHT22;11249;52.468;13.776;2023-01-10T09:02:39;7.00;99.90
22167;DHT22;11249;52.468;13.776;2023-01-10T09:05:07;6.90;99.90
22167;DHT22;11249;52.468;13.776;2023-01-10T09:07:56;7.00;99.90
22167;DHT22;11249;52.468;13.776;2023-01-10T09:10:30;7.00;99.90
22167;DHT22;11249;52.468;13.776;2023-01-10T09:12:58;7.00;99.90
22167;DHT22;11249;52.468;13.776;2023-01-10T09:15:35;7.00;99.90
22167;DHT22;11249;52.468;13.776;2023-01-10T09:18:11;7.00;99.90
22167;DHT22;11249;52.468;13.776;2023-01-10T09:20:39;7.00;99.90
22167;DHT22;11249;52.468;13.776;2023-01-10T09:23:15;7.00;99.90
22167;DHT22;11249;52.468;13.776;2023-01-10T09:25:49;7.00;99.90
22167;DHT22;11249;52.468;13.776;2023-01-10T09:28:23;7.00;99.90
22167;DHT22;11249;52.468;13.776;2023-01-10T09:30:50;7.10;99.90
22167;DHT22;11249;52.468;13.776;2023-01-10T09:33:38;7.10;99.90
22167;DHT22;11249;52.468;13.776;2023-01-10T09:36:13;7.10;99.90
22167;DHT22;11249;52.468;13.776;2023-01-10T09:38:47;7.20;99.90
22167;DHT22;11249;52.468;13.776;2023-01-10T09:41:59;7.20;99.90
22167;DHT22;11249;52.468;13.776;2023-01-10T09:47:51;7.20;99.90
22167;DHT22;11249;52.468;13.776;2023-01-10T09:53:28;7.20;99.90
22167;DHT22;11249;52.468;13.776;2023-01-10T09:56:03;7.10;99.90
22167;DHT22;11249;52.468;13.776;2023-01-10T09:58:38;7.20;99.90
22167;DHT22;11249;52.468;13.776;2023-01-10T10:01:08;7.20;99.90
22167;DHT22;11249;52.468;13.776;2023-01-10T10:06:29;7.30;99.90
22167;DHT22;11249;52.468;13.776;2023-01-10T10:09:02;7.40;99.90
22167;DHT22;11249;52.468;13.776;2023-01-10T10:11:36;7.50;99.90
22167;DHT22;11249;52.468;13.776;2023-01-10T10:17:16;7.60;99.90
22167;DHT22;11249;52.468;13.776;2023-01-10T10:25:57;7.60;99.90
22167;DHT22;11249;52.468;13.776;2023-01-10T10:28:45;7.60;99.90
22167;DHT22;11249;52.468;13.776;2023-01-10T10:34:33;7.50;99.90
22167;DHT22;11249;52.468;13.776;2023-01-10T10:39:53;7.50;99.90
22167;DHT22;11249;52.468;13.776;2023-01-10T10:42:29;7.60;99.90
22167;DHT22;11249;52.468;13.776;2023-01-10T10:47:39;7.70;99.90
22167;DHT22;11249;52.468;13.776;2023-01-10T10:50:23;7.70;99.90
22167;DHT22;11249;52.468;13.776;2023-01-10T10:53:00;7.80;99.90
22167;DHT22;11249;52.468;13.776;2023-01-10T10:55:33;7.80;99.90
22167;DHT22;11249;52.468;13.776;2023-01-10T10:58:08;7.80;99.90
22167;DHT22;11249;52.468;13.776;2023-01-10T11:00:42;7.70;99.90
22167;DHT22;11249;52.468;13.776;2023-01-10T11:05:59;7.80;99.90
22167;DHT22;11249;52.468;13.776;2023-01-10T11:08:35;7.80;99.90
22167;DHT22;11249;52.468;13.776;2023-01-10T11:11:24;7.70;99.90
22167;DHT22;11249;52.468;13.776;2023-01-10T11:14:01;7.70;99.90
22167;DHT22;11249;52.468;13.776;2023-01-10T11:16:43;7.70;99.90
22167;DHT22;11249;52.468;13.776;2023-01-10T11:21:55;7.80;99.90
22167;DHT22;11249;52.468;13.776;2023-01-10T11:24:29;7.90;99.90
22167;DHT22;11249;52.468;13.776;2023-01-10T11:27:15;7.80;99.90
22167;DHT22;11249;52.468;13.776;2023-01-10T11:29:46;7.80;99.90
22167;DHT22;11249;52.468;13.776;2023-01-10T11:32:26;7.80;99.90
22167;DHT22;11249;52.468;13.776;2023-01-10T11:35:08;7.90;99.90
22167;DHT22;11249;52.468;13.776;2023-01-10T11:37:42;7.90;99.90
22167;DHT22;11249;52.468;13.776;2023-01-10T11:40:26;8.00;99.90
22167;DHT22;11249;52.468;13.776;2023-01-10T11:43:00;8.00;99.90
22167;DHT22;11249;52.468;13.776;2023-01-10T11:45:53;8.00;99.90
22167;DHT22;11249;52.468;13.776;2023-01-10T11:48:33;8.00;99.90
22167;DHT22;11249;52.468;13.776;2023-01-10T11:51:30;8.10;99.90
22167;DHT22;11249;52.468;13.776;2023-01-10T11:54:21;8.10;99.90
22167;DHT22;11249;52.468;13.776;2023-01-10T11:56:57;8.00;99.90
22167;DHT22;11249;52.468;13.776;2023-01-10T11:59:25;8.10;99.90
22167;DHT22;11249;52.468;13.776;2023-01-10T12:02:02;8.00;99.90
22167;DHT22;11249;52.468;13.776;2023-01-10T12:04:42;8.10;99.90
22167;DHT22;11249;52.468;13.776;2023-01-10T12:07:11;8.10;99.90
22167;DHT22;11249;52.468;13.776;2023-01-10T12:09:56;8.10;99.90
22167;DHT22;11249;52.468;13.776;2023-01-10T12:15:01;8.20;99.90
22167;DHT22;11249;52.468;13.776;2023-01-10T12:17:45;8.30;99.90
22167;DHT22;11249;52.468;13.776;2023-01-10T12:20:19;8.30;99.90
22167;DHT22;11249;52.468;13.776;2023-01-10T12:22:58;8.40;99.90
22167;DHT22;11249;52.468;13.776;2023-01-10T12:25:36;8.40;99.90
22167;DHT22;11249;52.468;13.776;2023-01-10T12:28:03;8.40;99.90
22167;DHT22;11249;52.468;13.776;2023-01-10T12:30:55;8.30;99.90
22167;DHT22;11249;52.468;13.776;2023-01-10T12:33:42;8.40;99.90
22167;DHT22;11249;52.468;13.776;2023-01-10T12:36:27;8.50;99.90
22167;DHT22;11249;52.468;13.776;2023-01-10T12:39:12;8.50;99.90
22167;DHT22;11249;52.468;13.776;2023-01-10T12:41:55;8.50;99.90
22167;DHT22;11249;52.468;13.776;2023-01-10T12:44:46;8.50;99.90
22167;DHT22;11249;52.468;13.776;2023-01-10T12:47:28;8.60;99.90
22167;DHT22;11249;52.468;13.776;2023-01-10T12:50:10;8.60;99.90
22167;DHT22;11249;52.468;13.776;2023-01-10T12:53:06;8.50;99.90
22167;DHT22;11249;52.468;13.776;2023-01-10T12:55:44;8.50;99.90
22167;DHT22;11249;52.468;13.776;2023-01-10T12:58:18;8.50;99.90
22167;DHT22;11249;52.468;13.776;2023-01-10T13:00:57;8.50;99.90
22167;DHT22;11249;52.468;13.776;2023-01-10T13:03:33;8.60;99.90
22167;DHT22;11249;52.468;13.776;2023-01-10T13:06:01;8.60;99.90
22167;DHT22;11249;52.468;13.776;2023-01-10T13:08:37;8.70;99.90
22167;DHT22;11249;52.468;13.776;2023-01-10T13:11:08;8.70;99.90
22167;DHT22;11249;52.468;13.776;2023-01-10T13:13:48;8.70;99.90
22167;DHT22;11249;52.468;13.776;2023-01-10T13:21:38;8.70;99.90
22167;DHT22;11249;52.468;13.776;2023-01-10T13:26:52;8.50;99.90
22167;DHT22;11249;52.468;13.776;2023-01-10T13:29:37;8.50;99.90
22167;DHT22;11249;52.468;13.776;2023-01-10T13:32:22;8.50;99.90
22167;DHT22;11249;52.468;13.776;2023-01-10T13:35:17;8.40;99.90
22167;DHT22;11249;52.468;13.776;2023-01-10T13:37:53;8.40;99.90
22167;DHT22;11249;52.468;13.776;2023-01-10T13:40:25;8.40;99.90
22167;DHT22;11249;52.468;13.776;2023-01-10T13:51:35;8.30;99.90
22167;DHT22;11249;52.468;13.776;2023-01-10T13:56:43;8.30;99.90
22167;DHT22;11249;52.468;13.776;2023-01-10T14:02:21;8.40;99.90
22167;DHT22;11249;52.468;13.776;2023-01-10T14:05:06;8.40;99.90
22167;DHT22;11249;52.468;13.776;2023-01-10T14:07:44;8.30;99.90
22167;DHT22;11249;52.468;13.776;2023-01-10T14:10:23;8.30;99.90
22167;DHT22;11249;52.468;13.776;2023-01-10T14:13:02;8.20;99.90
22167;DHT22;11249;52.468;13.776;2023-01-10T14:15:41;8.20;99.90
22167;DHT22;11249;52.468;13.776;2023-01-10T14:18:19;8.20;99.90
22167;DHT22;11249;52.468;13.776;2023-01-10T14:20:58;8.20;99.90
22167;DHT22;11249;52.468;13.776;2023-01-10T14:23:40;8.20;99.90
22167;DHT22;11249;52.468;13.776;2023-01-10T14:26:35;8.20;99.90
22167;DHT22;11249;52.468;13.776;2023-01-10T14:29:13;8.20;99.90
22167;DHT22;11249;52.468;13.776;2023-01-10T14:31:49;8.10;99.90
22167;DHT22;11249;52.468;13.776;2023-01-10T14:34:27;8.10;99.90
22167;DHT22;11249;52.468;13.776;2023-01-10T14:37:14;8.10;99.90
22167;DHT22;11249;52.468;13.776;2023-01-10T14:39:49;8.10;99.90
22167;DHT22;11249;52.468;13.776;2023-01-10T14:42:18;8.10;99.90
22167;DHT22;11249;52.468;13.776;2023-01-10T14:45:01;8.10;99.90
22167;DHT22;11249;52.468;13.776;2023-01-10T14:47:31;8.00;99.90
22167;DHT22;11249;52.468;13.776;2023-01-10T14:50:05;8.00;99.90
22167;DHT22;11249;52.468;13.776;2023-01-10T14:52:32;7.90;99.90
22167;DHT22;11249;52.468;13.776;2023-01-10T14:55:12;7.90;99.90
22167;DHT22;11249;52.468;13.776;2023-01-10T14:57:57;7.90;99.90
22167;DHT22;11249;52.468;13.776;2023-01-10T15:00:29;7.80;99.90
22167;DHT22;11249;52.468;13.776;2023-01-10T15:03:04;7.70;99.90
22167;DHT22;11249;52.468;13.776;2023-01-10T15:05:45;7.70;99.90
22167;DHT22;11249;52.468;13.776;2023-01-10T15:08:23;7.60;99.90
22167;DHT22;11249;52.468;13.776;2023-01-10T15:11:04;7.60;99.90
22167;DHT22;11249;52.468;13.776;2023-01-10T15:13:50;7.50;99.90
22167;DHT22;11249;52.468;13.776;2023-01-10T15:16:20;7.50;99.90
22167;DHT22;11249;52.468;13.776;2023-01-10T15:18:54;7.40;99.90
22167;DHT22;11249;52.468;13.776;2023-01-10T15:21:28;7.40;99.90
22167;DHT22;11249;52.468;13.776;2023-01-10T15:23:55;7.50;99.90
22167;DHT22;11249;52.468;13.776;2023-01-10T15:29:24;7.40;99.90
22167;DHT22;11249;52.468;13.776;2023-01-10T15:31:53;7.50;99.90
22167;DHT22;11249;52.468;13.776;2023-01-10T15:34:30;7.40;99.90
22167;DHT22;11249;52.468;13.776;2023-01-10T15:36:59;7.40;99.90
22167;DHT22;11249;52.468;13.776;2023-01-10T15:39:37;7.40;99.90
22167;DHT22;11249;52.468;13.776;2023-01-10T15:42:11;7.40;99.90
22167;DHT22;11249;52.468;13.776;2023-01-10T15:44:47;7.30;99.90
22167;DHT22;11249;52.468;13.776;2023-01-10T15:47:52;7.30;99.90
22167;DHT22;11249;52.468;13.776;2023-01-10T15:50:36;7.20;99.90
22167;DHT22;11249;52.468;13.776;2023-01-10T15:53:09;7.10;99.90
22167;DHT22;11249;52.468;13.776;2023-01-10T15:55:54;7.10;99.90
22167;DHT22;11249;52.468;13.776;2023-01-10T15:58:34;7.10;99.90
22167;DHT22;11249;52.468;13.776;2023-01-10T16:01:12;7.10;99.90
22167;DHT22;11249;52.468;13.776;2023-01-10T16:03:51;7.10;99.90
22167;DHT22;11249;52.468;13.776;2023-01-10T16:06:33;7.00;99.90
22167;DHT22;11249;52.468;13.776;2023-01-10T16:09:04;7.00;99.90
22167;DHT22;11249;52.468;13.776;2023-01-10T16:11:59;7.00;99.90
22167;DHT22;11249;52.468;13.776;2023-01-10T16:14:51;6.90;99.90
22167;DHT22;11249;52.468;13.776;2023-01-10T16:17:24;6.90;99.90
22167;DHT22;11249;52.468;13.776;2023-01-10T16:19:50;6.90;99.90
22167;DHT22;11249;52.468;13.776;2023-01-10T16:22:19;6.90;99.90
22167;DHT22;11249;52.468;13.776;2023-01-10T16:24:52;6.90;99.90
22167;DHT22;11249;52.468;13.776;2023-01-10T16:27:25;6.90;99.90
22167;DHT22;11249;52.468;13.776;2023-01-10T16:30:00;6.80;99.90
22167;DHT22;11249;52.468;13.776;2023-01-10T16:32:27;6.80;99.90
22167;DHT22;11249;52.468;13.776;2023-01-10T16:35:00;6.80;99.90
22167;DHT22;11249;52.468;13.776;2023-01-10T16:37:33;6.80;99.90
22167;DHT22;11249;52.468;13.776;2023-01-10T16:39:59;6.80;99.90
22167;DHT22;11249;52.468;13.776;2023-01-10T16:42:33;6.80;99.90
22167;DHT22;11249;52.468;13.776;2023-01-10T16:45:18;6.80;99.90
22167;DHT22;11249;52.468;13.776;2023-01-10T16:47:52;6.70;99.90
22167;DHT22;11249;52.468;13.776;2023-01-10T16:50:19;6.60;99.90
22167;DHT22;11249;52.468;13.776;2023-01-10T16:52:46;6.60;99.90
22167;DHT22;11249;52.468;13.776;2023-01-10T16:55:22;6.50;99.90
22167;DHT22;11249;52.468;13.776;2023-01-10T16:57:50;6.50;99.90
22167;DHT22;11249;52.468;13.776;2023-01-10T17:00:17;6.50;99.90
22167;DHT22;11249;52.468;13.776;2023-01-10T17:02:52;6.50;99.90
22167;DHT22;11249;52.468;13.776;2023-01-10T17:05:19;6.50;99.90
22167;DHT22;11249;52.468;13.776;2023-01-10T17:07:52;6.50;99.90
22167;DHT22;11249;52.468;13.776;2023-01-10T17:10:18;6.50;99.90
22167;DHT22;11249;52.468;13.776;2023-01-10T17:12:52;6.50;99.90
22167;DHT22;11249;52.468;13.776;2023-01-10T17:15:19;6.50;99.90
22167;DHT22;11249;52.468;13.776;2023-01-10T17:17:45;6.50;99.90
22167;DHT22;11249;52.468;13.776;2023-01-10T17:20:19;6.50;99.90
22167;DHT22;11249;52.468;13.776;2023-01-10T17:22:52;6.50;99.90
22167;DHT22;11249;52.468;13.776;2023-01-10T17:25:25;6.40;99.90
22167;DHT22;11249;52.468;13.776;2023-01-10T17:27:58;6.40;99.90
22167;DHT22;11249;52.468;13.776;2023-01-10T17:30:31;6.40;99.90
22167;DHT22;11249;52.468;13.776;2023-01-10T17:33:11;6.30;99.90
22167;DHT22;11249;52.468;13.776;2023-01-10T17:35:44;6.30;99.90
22167;DHT22;11249;52.468;13.776;2023-01-10T17:38:17;6.20;99.90
22167;DHT22;11249;52.468;13.776;2023-01-10T17:40:45;6.20;99.90
22167;DHT22;11249;52.468;13.776;2023-01-10T17:43:19;6.30;99.90
22167;DHT22;11249;52.468;13.776;2023-01-10T17:45:48;6.20;99.90
22167;DHT22;11249;52.468;13.776;2023-01-10T17:48:17;6.20;99.90
22167;DHT22;11249;52.468;13.776;2023-01-10T17:50:55;6.20;99.90
22167;DHT22;11249;52.468;13.776;2023-01-10T17:53:22;6.20;99.90
22167;DHT22;11249;52.468;13.776;2023-01-10T17:55:56;6.20;99.90
22167;DHT22;11249;52.468;13.776;2023-01-10T17:58:26;6.10;99.90
22167;DHT22;11249;52.468;13.776;2023-01-10T18:00:53;6.10;99.90
22167;DHT22;11249;52.468;13.776;2023-01-10T18:03:26;6.00;99.90
22167;DHT22;11249;52.468;13.776;2023-01-10T18:05:57;6.10;99.90
22167;DHT22;11249;52.468;13.776;2023-01-10T18:08:24;6.00;99.90
22167;DHT22;11249;52.468;13.776;2023-01-10T18:10:59;5.90;99.90
22167;DHT22;11249;52.468;13.776;2023-01-10T18:13:26;5.90;99.90
22167;DHT22;11249;52.468;13.776;2023-01-10T18:15:57;5.90;99.90
22167;DHT22;11249;52.468;13.776;2023-01-10T18:18:30;5.80;99.90
22167;DHT22;11249;52.468;13.776;2023-01-10T18:20:57;5.80;99.90